createdAt,value
2019-02-12T00:00:31.013Z,3.61
2019-02-12T00:03:00.966Z,3.65
2019-02-12T00:05:29.430Z,3.67
2019-02-12T00:07:57.851Z,3.70
2019-02-12T00:10:26.307Z,3.74
2019-02-12T00:12:54.784Z,3.74
2019-02-12T00:15:23.221Z,3.74
2019-02-12T00:17:51.771Z,3.71
2019-02-12T00:20:20.183Z,3.71
2019-02-12T00:22:48.635Z,3.71
2019-02-12T00:25:17.073Z,3.73
2019-02-12T00:27:45.472Z,3.72
2019-02-12T00:30:14.508Z,3.73
2019-02-12T00:32:42.959Z,3.75
2019-02-12T00:35:11.442Z,3.80
2019-02-12T00:37:39.961Z,3.79
2019-02-12T00:40:10.022Z,3.79
2019-02-12T00:42:38.616Z,3.83
2019-02-12T00:45:09.592Z,3.83
2019-02-12T00:47:38.103Z,3.85
2019-02-12T00:50:09.337Z,3.84
2019-02-12T00:52:37.880Z,3.86
2019-02-12T00:55:08.232Z,3.87
2019-02-12T00:57:36.688Z,3.86
2019-02-12T01:00:11.182Z,3.91
2019-02-12T01:02:39.598Z,3.89
2019-02-12T01:05:08.282Z,3.88
2019-02-12T01:07:36.738Z,3.91
2019-02-12T01:10:08.684Z,3.89
2019-02-12T01:12:37.343Z,3.89
2019-02-12T01:15:08.898Z,3.91
2019-02-12T01:17:37.715Z,3.91
2019-02-12T01:20:09.265Z,3.94
2019-02-12T01:22:37.790Z,3.93
2019-02-12T01:25:08.154Z,3.96
2019-02-12T01:27:36.597Z,3.94
2019-02-12T01:30:10.566Z,3.97
2019-02-12T01:32:39.346Z,3.94
2019-02-12T01:35:07.903Z,3.94
2019-02-12T01:37:36.356Z,3.95
2019-02-12T01:40:05.840Z,3.95
2019-02-12T01:42:34.262Z,3.94
2019-02-12T01:45:02.706Z,3.96
2019-02-12T01:47:31.134Z,3.94
2019-02-12T01:50:05.992Z,3.95
2019-02-12T01:52:34.460Z,3.93
2019-02-12T01:55:02.995Z,3.92
2019-02-12T01:57:31.425Z,3.96
2019-02-12T01:59:59.863Z,3.93
2019-02-12T02:02:28.370Z,3.94
2019-02-12T02:04:56.794Z,4.00
2019-02-12T02:07:25.231Z,3.98
2019-02-12T02:09:53.729Z,3.96
2019-02-12T02:12:22.130Z,3.94
2019-02-12T02:14:50.588Z,3.96
2019-02-12T02:17:18.999Z,3.92
2019-02-12T02:19:47.411Z,3.95
2019-02-12T02:22:15.866Z,3.94
2019-02-12T02:24:44.284Z,3.94
2019-02-12T02:27:12.700Z,3.94
2019-02-12T02:29:41.982Z,3.95
2019-02-12T02:32:10.386Z,3.94
2019-02-12T02:34:38.792Z,3.95
2019-02-12T02:37:07.411Z,3.93
2019-02-12T02:39:35.849Z,3.94
2019-02-12T02:42:04.295Z,3.95
2019-02-12T02:44:32.740Z,3.94
2019-02-12T02:47:01.176Z,3.93
2019-02-12T02:49:29.593Z,3.92
2019-02-12T02:51:58.054Z,3.93
2019-02-12T02:54:26.463Z,3.92
2019-02-12T02:56:54.894Z,3.92
2019-02-12T02:59:23.315Z,3.93
2019-02-12T03:01:51.754Z,3.92
2019-02-12T03:04:20.257Z,3.92
2019-02-12T03:06:48.701Z,3.90
2019-02-12T03:09:17.135Z,3.92
2019-02-12T03:11:45.539Z,3.90
2019-02-12T03:14:14.461Z,3.90
2019-02-12T03:16:42.857Z,3.90
2019-02-12T03:19:11.268Z,3.88
2019-02-12T03:21:39.719Z,3.86
2019-02-12T03:24:08.135Z,3.87
2019-02-12T03:26:36.537Z,3.87
2019-02-12T03:29:05.080Z,3.84
2019-02-12T03:31:33.457Z,3.79
2019-02-12T03:34:01.866Z,3.65
2019-02-12T03:36:31.840Z,3.34
2019-02-12T03:39:00.243Z,3.36
2019-02-12T03:41:28.772Z,3.30
2019-02-12T03:43:57.205Z,3.13
2019-02-12T03:46:25.646Z,3.17
2019-02-12T03:48:54.099Z,2.99
2019-02-12T03:51:22.617Z,2.96
2019-02-12T03:53:51.037Z,2.96
2019-02-12T03:56:19.533Z,2.91
2019-02-12T03:58:47.938Z,2.92
2019-02-12T04:01:16.635Z,2.95
2019-02-12T04:03:46.006Z,2.97
2019-02-12T04:06:14.429Z,2.99
2019-02-12T04:08:42.887Z,3.02
2019-02-12T04:11:11.300Z,3.06
2019-02-12T04:13:39.775Z,3.10
2019-02-12T04:16:08.244Z,3.13
2019-02-12T04:18:36.660Z,3.08
2019-02-12T04:21:05.099Z,3.15
2019-02-12T04:23:33.639Z,3.15
2019-02-12T04:26:02.062Z,3.15
2019-02-12T04:28:30.493Z,3.15
2019-02-12T04:30:58.898Z,3.12
2019-02-12T04:33:27.333Z,3.08
2019-02-12T04:35:55.781Z,3.09
2019-02-12T04:38:24.192Z,3.09
2019-02-12T04:40:52.617Z,3.03
2019-02-12T04:43:21.082Z,3.02
2019-02-12T04:45:49.493Z,3.04
2019-02-12T04:48:17.942Z,2.98
2019-02-12T04:50:46.378Z,3.00
2019-02-12T04:53:14.827Z,3.00
2019-02-12T04:55:43.251Z,3.02
2019-02-12T04:58:11.672Z,3.02
2019-02-12T05:00:40.119Z,3.03
2019-02-12T05:03:08.565Z,3.03
2019-02-12T05:05:37.014Z,3.03
2019-02-12T05:08:05.430Z,3.04
2019-02-12T05:10:39.609Z,3.08
2019-02-12T05:13:08.036Z,3.16
2019-02-12T05:15:36.476Z,3.06
2019-02-12T05:18:04.878Z,3.02
2019-02-12T05:20:36.094Z,3.04
2019-02-12T05:23:04.545Z,3.02
2019-02-12T05:25:32.949Z,3.03
2019-02-12T05:28:01.392Z,3.05
2019-02-12T05:30:29.836Z,3.10
2019-02-12T05:32:58.276Z,3.14
2019-02-12T05:35:26.746Z,3.21
2019-02-12T05:37:55.149Z,3.25
2019-02-12T05:40:23.576Z,3.20
2019-02-12T05:42:52.033Z,3.19
2019-02-12T05:45:20.435Z,3.19
2019-02-12T05:47:48.866Z,3.23
2019-02-12T05:50:18.644Z,3.21
2019-02-12T05:52:53.990Z,3.25
2019-02-12T05:55:17.212Z,3.23
2019-02-12T05:57:45.680Z,3.23
2019-02-12T06:00:20.228Z,3.23
2019-02-12T06:02:48.646Z,3.16
2019-02-12T06:05:28.249Z,3.15
2019-02-12T06:07:56.737Z,3.17
2019-02-12T06:10:25.165Z,3.16
2019-02-12T06:12:53.634Z,3.17
2019-02-12T06:15:22.160Z,3.17
2019-02-12T06:17:50.585Z,3.17
2019-02-12T06:20:18.996Z,3.14
2019-02-12T06:22:47.508Z,3.12
2019-02-12T06:25:15.934Z,3.12
2019-02-12T06:27:44.394Z,3.13
2019-02-12T06:30:12.861Z,3.10
2019-02-12T06:32:41.305Z,3.10
2019-02-12T06:35:10.559Z,3.13
2019-02-12T06:37:39.037Z,3.11
2019-02-12T06:40:10.802Z,3.14
2019-02-12T06:42:39.310Z,3.11
2019-02-12T06:45:11.015Z,3.09
2019-02-12T06:47:39.418Z,3.09
2019-02-12T06:50:10.787Z,3.08
2019-02-12T06:52:39.251Z,3.09
2019-02-12T06:55:09.730Z,3.06
2019-02-12T06:57:38.151Z,3.07
2019-02-12T07:00:09.806Z,3.06
2019-02-12T07:03:03.993Z,3.02
2019-02-12T07:05:32.426Z,3.00
2019-02-12T07:08:25.183Z,2.97
2019-02-12T07:10:56.655Z,3.01
2019-02-12T07:13:30.714Z,3.01
2019-02-12T07:16:02.175Z,3.00
2019-02-12T07:19:04.863Z,2.98
2019-02-12T07:21:39.215Z,3.01
2019-02-12T07:24:31.619Z,3.02
2019-02-12T07:27:08.912Z,3.03
2019-02-12T07:29:58.556Z,3.08
2019-02-12T07:32:32.598Z,3.13
2019-02-12T07:35:21.828Z,3.14
2019-02-12T07:38:08.123Z,3.17
2019-02-12T07:40:42.770Z,3.24
2019-02-12T07:43:14.194Z,3.38
2019-02-12T07:45:54.440Z,3.34
2019-02-12T07:48:38.159Z,3.38
2019-02-12T07:51:09.641Z,3.43
2019-02-12T07:53:53.179Z,3.47
2019-02-12T07:56:39.818Z,3.62
2019-02-12T07:59:20.174Z,3.76
2019-02-12T08:01:57.244Z,3.72
2019-02-12T08:04:37.424Z,3.72
2019-02-12T08:07:33.000Z,3.90
2019-02-12T08:10:25.874Z,4.12
2019-02-12T08:12:57.363Z,4.26
2019-02-12T08:15:51.611Z,4.20
2019-02-12T08:18:26.056Z,4.21
2019-02-12T08:21:06.523Z,4.42
2019-02-12T08:23:59.168Z,4.38
2019-02-12T08:26:30.628Z,4.24
2019-02-12T08:29:13.443Z,4.27
2019-02-12T08:31:56.827Z,4.15
2019-02-12T08:34:28.316Z,4.13
2019-02-12T08:37:14.728Z,4.12
2019-02-12T08:40:04.280Z,4.15
2019-02-12T08:42:44.563Z,4.03
2019-02-12T08:45:40.363Z,4.18
2019-02-12T08:48:11.808Z,4.20
2019-02-12T08:50:52.024Z,4.16
2019-02-12T08:53:35.420Z,4.10
2019-02-12T08:56:23.330Z,4.09
2019-02-12T08:59:00.816Z,4.05
2019-02-12T09:01:38.208Z,4.05
2019-02-12T09:04:32.546Z,4.13
2019-02-12T09:07:10.046Z,4.07
2019-02-12T09:10:04.295Z,4.14
2019-02-12T09:12:54.067Z,4.21
2019-02-12T09:15:52.706Z,4.23
2019-02-12T09:18:35.863Z,4.15
2019-02-12T09:21:26.897Z,4.17
2019-02-12T09:24:03.302Z,4.30
2019-02-12T09:26:46.270Z,4.29
2019-02-12T09:29:26.630Z,4.28
2019-02-12T09:32:09.859Z,4.34
2019-02-12T09:34:41.419Z,4.70
2019-02-12T09:37:28.079Z,5.16
2019-02-12T09:40:19.548Z,5.39
2019-02-12T09:43:22.045Z,5.91
2019-02-12T09:45:59.329Z,5.54
2019-02-12T09:48:39.591Z,5.18
2019-02-12T09:51:29.055Z,5.58
2019-02-12T09:54:08.744Z,5.70
2019-02-12T09:57:03.202Z,5.79
2019-02-12T09:59:46.200Z,5.66
2019-02-12T10:02:44.993Z,5.69
2019-02-12T10:05:22.384Z,5.97
2019-02-12T10:08:11.488Z,5.50
2019-02-12T10:10:51.651Z,5.87
2019-02-12T10:13:26.195Z,5.81
2019-02-12T10:16:00.473Z,5.77
2019-02-12T10:18:40.511Z,5.72
2019-02-12T10:21:28.644Z,5.76
2019-02-12T10:24:19.015Z,5.62
2019-02-12T10:26:41.914Z,5.76
2019-02-12T10:29:16.248Z,5.79
2019-02-12T10:31:43.679Z,5.81
2019-02-12T10:34:12.130Z,5.48
2019-02-12T10:36:40.692Z,5.43
2019-02-12T10:39:10.465Z,5.58
2019-02-12T10:41:38.896Z,5.62
2019-02-12T10:44:07.316Z,5.65
2019-02-12T10:46:35.742Z,5.84
2019-02-12T10:49:04.321Z,5.79
2019-02-12T10:51:32.751Z,5.94
2019-02-12T10:54:01.179Z,6.16
2019-02-12T10:56:29.659Z,5.97
2019-02-12T10:58:58.100Z,6.00
2019-02-12T11:01:26.589Z,6.13
2019-02-12T11:03:55.066Z,6.00
2019-02-12T11:06:23.516Z,6.18
2019-02-12T11:08:51.964Z,6.15
2019-02-12T11:11:20.382Z,6.24
2019-02-12T11:13:48.828Z,6.00
2019-02-12T11:16:17.233Z,6.07
2019-02-12T11:18:45.705Z,6.07
2019-02-12T11:21:14.205Z,6.19
2019-02-12T11:23:42.606Z,6.32
2019-02-12T11:26:11.021Z,6.36
2019-02-12T11:28:39.493Z,6.40
2019-02-12T11:31:07.939Z,6.39
2019-02-12T11:33:36.386Z,6.50
2019-02-12T11:36:04.861Z,6.41
2019-02-12T11:38:33.320Z,6.62
2019-02-12T11:41:01.784Z,6.61
2019-02-12T11:43:30.217Z,6.76
2019-02-12T11:45:58.648Z,6.83
2019-02-12T11:48:27.147Z,6.90
2019-02-12T11:50:55.622Z,6.68
2019-02-12T11:53:24.112Z,6.57
2019-02-12T11:55:52.613Z,6.63
2019-02-12T11:58:21.035Z,6.69
2019-02-12T12:00:51.122Z,6.81
2019-02-12T12:03:19.582Z,6.62
2019-02-12T12:05:48.019Z,6.68
2019-02-12T12:08:16.446Z,6.70
2019-02-12T12:10:44.878Z,6.64
2019-02-12T12:13:13.299Z,6.64
2019-02-12T12:15:41.744Z,6.71
2019-02-12T12:18:10.147Z,6.71
2019-02-12T12:20:38.580Z,6.68
2019-02-12T12:23:07.012Z,6.83
2019-02-12T12:25:35.428Z,6.76
2019-02-12T12:28:03.855Z,6.90
2019-02-12T12:30:32.299Z,6.80
2019-02-12T12:33:00.731Z,6.92
2019-02-12T12:35:29.140Z,6.93
2019-02-12T12:37:57.601Z,7.04
2019-02-12T12:40:26.034Z,6.85
2019-02-12T12:42:54.448Z,6.93
2019-02-12T12:45:22.896Z,7.06
2019-02-12T12:47:51.367Z,7.10
2019-02-12T12:50:19.762Z,6.96
2019-02-12T12:52:48.220Z,6.89
2019-02-12T12:55:16.649Z,6.69
2019-02-12T12:57:45.081Z,6.72
2019-02-12T13:00:15.544Z,6.72
2019-02-12T13:02:43.990Z,6.80
2019-02-12T13:05:12.473Z,6.64
2019-02-12T13:07:40.954Z,6.62
2019-02-12T13:10:14.542Z,6.66
2019-02-12T13:12:43.049Z,6.53
2019-02-12T13:15:13.419Z,6.63
2019-02-12T13:17:41.897Z,6.71
2019-02-12T13:20:16.057Z,6.62
2019-02-12T13:22:44.504Z,6.59
2019-02-12T13:25:13.007Z,6.66
2019-02-12T13:27:41.425Z,6.70
2019-02-12T13:30:12.909Z,6.79
2019-02-12T13:32:41.335Z,6.83
2019-02-12T13:35:10.921Z,6.85
2019-02-12T13:37:39.415Z,6.72
2019-02-12T13:40:10.777Z,6.76
2019-02-12T13:42:39.283Z,6.71
2019-02-12T13:45:15.576Z,6.72
2019-02-12T13:47:44.027Z,6.75
2019-02-12T13:50:13.517Z,6.67
2019-02-12T13:52:42.100Z,6.72
2019-02-12T13:55:17.274Z,6.78
2019-02-12T13:57:41.948Z,6.79
2019-02-12T14:00:15.733Z,6.81
2019-02-12T14:02:44.235Z,6.84
2019-02-12T14:05:18.670Z,6.84
2019-02-12T14:07:47.077Z,6.81
2019-02-12T14:10:15.618Z,6.64
2019-02-12T14:12:44.067Z,6.57
2019-02-12T14:15:14.204Z,6.53
2019-02-12T14:17:42.710Z,6.52
2019-02-12T14:20:17.982Z,6.53
2019-02-12T14:22:46.507Z,6.50
2019-02-12T14:25:16.281Z,6.54
2019-02-12T14:27:44.720Z,6.61
2019-02-12T14:30:15.925Z,6.64
2019-02-12T14:32:45.168Z,6.61
2019-02-12T14:35:13.689Z,6.69
2019-02-12T14:37:42.080Z,6.71
2019-02-12T14:40:12.496Z,6.76
2019-02-12T14:42:40.904Z,6.73
2019-02-12T14:45:15.161Z,6.75
2019-02-12T14:47:43.665Z,6.81
2019-02-12T14:50:13.636Z,6.79
2019-02-12T14:52:42.061Z,6.74
2019-02-12T14:55:10.626Z,6.75
2019-02-12T14:57:39.066Z,6.71
2019-02-12T15:00:13.400Z,6.62
2019-02-12T15:02:41.879Z,6.47
2019-02-12T15:05:10.396Z,6.45
2019-02-12T15:07:38.858Z,6.38
2019-02-12T15:10:10.438Z,6.39
2019-02-12T15:12:38.882Z,6.38
2019-02-12T15:15:09.654Z,6.41
2019-02-12T15:17:38.103Z,6.47
2019-02-12T15:20:11.708Z,6.47
2019-02-12T15:22:40.279Z,6.41
2019-02-12T15:25:12.444Z,6.41
2019-02-12T15:27:40.877Z,6.40
2019-02-12T15:30:17.517Z,6.36
2019-02-12T15:32:45.928Z,6.34
2019-02-12T15:35:14.552Z,6.31
2019-02-12T15:37:43.062Z,6.31
2019-02-12T15:40:16.930Z,6.31
2019-02-12T15:42:45.426Z,6.30
2019-02-12T15:45:19.472Z,6.23
2019-02-12T15:47:57.569Z,6.24
2019-02-12T15:50:25.967Z,6.17
2019-02-12T15:52:55.057Z,6.13
2019-02-12T15:55:23.498Z,6.08
2019-02-12T15:57:51.969Z,6.06
2019-02-12T16:00:20.985Z,6.06
2019-02-12T16:02:49.441Z,6.01
2019-02-12T16:05:17.916Z,5.98
2019-02-12T16:07:47.464Z,6.00
2019-02-12T16:10:21.296Z,5.92
2019-02-12T16:12:51.577Z,5.89
2019-02-12T16:15:23.893Z,5.91
2019-02-12T16:17:51.178Z,5.91
2019-02-12T16:20:19.639Z,5.90
2019-02-12T16:22:48.118Z,5.90
2019-02-12T16:25:16.538Z,5.92
2019-02-12T16:27:45.089Z,5.89
2019-02-12T16:30:16.040Z,5.89
2019-02-12T16:32:44.612Z,5.90
2019-02-12T16:35:15.061Z,5.88
2019-02-12T16:37:43.686Z,5.88
2019-02-12T16:40:14.238Z,5.88
2019-02-12T16:42:42.735Z,5.87
2019-02-12T16:45:14.615Z,5.87
2019-02-12T16:47:43.030Z,5.86
2019-02-12T16:50:11.562Z,5.86
2019-02-12T16:52:40.044Z,5.86
2019-02-12T16:55:10.304Z,5.86
2019-02-12T16:57:38.830Z,5.87
2019-02-12T17:00:15.728Z,5.84
2019-02-12T17:02:44.182Z,5.82
2019-02-12T17:05:14.541Z,5.80
2019-02-12T17:07:44.811Z,5.77
2019-02-12T17:10:13.781Z,5.79
2019-02-12T17:12:42.330Z,5.76
2019-02-12T17:15:12.709Z,5.77
2019-02-12T17:17:41.154Z,5.72
2019-02-12T17:20:23.624Z,5.68
2019-02-12T17:22:52.127Z,5.70
2019-02-12T17:25:20.607Z,5.67
2019-02-12T17:27:50.531Z,5.61
2019-02-12T17:30:19.472Z,5.64
2019-02-12T17:32:47.984Z,5.58
2019-02-12T17:35:16.468Z,5.60
2019-02-12T17:37:44.968Z,5.54
2019-02-12T17:40:15.637Z,5.54
2019-02-12T17:42:44.348Z,5.56
2019-02-12T17:45:14.471Z,5.50
2019-02-12T17:47:43.037Z,5.48
2019-02-12T17:50:15.831Z,5.51
2019-02-12T17:52:44.289Z,5.43
2019-02-12T17:55:13.203Z,5.35
2019-02-12T17:57:52.544Z,5.35
2019-02-12T18:00:21.158Z,5.33
2019-02-12T18:02:49.637Z,5.26
2019-02-12T18:05:18.171Z,5.25
2019-02-12T18:07:46.649Z,5.24
2019-02-12T18:10:15.270Z,5.20
2019-02-12T18:12:43.715Z,5.23
2019-02-12T18:15:15.383Z,5.19
2019-02-12T18:17:43.844Z,5.13
2019-02-12T18:20:16.391Z,5.20
2019-02-12T18:22:44.932Z,5.20
2019-02-12T18:25:13.538Z,5.14
2019-02-12T18:27:42.177Z,5.19
2019-02-12T18:30:13.570Z,5.20
2019-02-12T18:32:42.067Z,5.14
2019-02-12T18:35:10.546Z,5.16
2019-02-12T18:37:39.093Z,5.17
2019-02-12T18:40:12.737Z,5.17
2019-02-12T18:42:41.387Z,5.14
2019-02-12T18:45:12.920Z,5.06
2019-02-12T18:47:41.331Z,5.10
2019-02-12T18:50:12.045Z,5.03
2019-02-12T18:52:40.651Z,5.02
2019-02-12T18:55:11.315Z,5.00
2019-02-12T18:57:39.809Z,4.98
2019-02-12T19:00:11.412Z,5.00
2019-02-12T19:02:40.114Z,4.90
2019-02-12T19:05:10.430Z,4.86
2019-02-12T19:07:39.070Z,4.89
2019-02-12T19:10:12.899Z,4.86
2019-02-12T19:12:41.335Z,4.82
2019-02-12T19:15:12.309Z,4.85
2019-02-12T19:17:41.221Z,4.84
2019-02-12T19:20:13.965Z,4.84
2019-02-12T19:22:42.672Z,4.85
2019-02-12T19:25:11.734Z,4.83
2019-02-12T19:27:40.321Z,4.82
2019-02-12T19:30:16.589Z,4.80
2019-02-12T19:32:45.069Z,4.79
2019-02-12T19:35:13.505Z,4.79
2019-02-12T19:37:41.965Z,4.78
2019-02-12T19:40:13.921Z,4.80
2019-02-12T19:42:42.373Z,4.79
2019-02-12T19:45:16.236Z,4.74
2019-02-12T19:47:44.832Z,4.74
2019-02-12T19:50:13.360Z,4.68
2019-02-12T19:52:41.784Z,4.76
2019-02-12T19:55:11.199Z,4.74
2019-02-12T19:57:39.678Z,4.78
2019-02-12T20:00:17.440Z,4.66
2019-02-12T20:02:45.893Z,4.65
2019-02-12T20:05:14.479Z,4.66
2019-02-12T20:07:43.002Z,4.67
2019-02-12T20:10:13.036Z,4.64
2019-02-12T20:12:41.496Z,4.57
2019-02-12T20:15:15.643Z,4.56
2019-02-12T20:17:44.102Z,4.53
2019-02-12T20:20:13.515Z,4.45
2019-02-12T20:22:41.982Z,4.41
2019-02-12T20:25:11.874Z,4.40
2019-02-12T20:27:40.271Z,4.39
2019-02-12T20:30:14.170Z,4.34
2019-02-12T20:32:42.657Z,4.32
2019-02-12T20:35:13.791Z,4.28
2019-02-12T20:37:42.387Z,4.24
2019-02-12T20:40:13.139Z,4.25
2019-02-12T20:42:41.761Z,4.24
2019-02-12T20:45:17.943Z,4.26
2019-02-12T20:47:46.548Z,4.24
2019-02-12T20:50:17.285Z,4.29
2019-02-12T20:52:45.825Z,4.31
2019-02-12T20:55:14.213Z,4.29
2019-02-12T20:57:42.681Z,4.27
2019-02-12T21:00:16.450Z,4.20
2019-02-12T21:02:44.985Z,4.14
2019-02-12T21:05:15.467Z,4.17
2019-02-12T21:07:43.963Z,4.08
2019-02-12T21:10:33.159Z,4.15
2019-02-12T21:13:01.991Z,4.10
2019-02-12T21:15:31.010Z,4.14
2019-02-12T21:17:59.484Z,4.09
2019-02-12T21:20:27.948Z,4.12
2019-02-12T21:22:57.047Z,4.13
2019-02-12T21:25:25.501Z,4.06
2019-02-12T21:27:53.930Z,4.09
2019-02-12T21:30:27.484Z,4.06
2019-02-12T21:32:57.389Z,4.06
2019-02-12T21:35:26.714Z,4.09
2019-02-12T21:37:55.150Z,4.10
2019-02-12T21:40:25.303Z,4.12
2019-02-12T21:42:53.908Z,4.13
2019-02-12T21:45:22.415Z,4.08
2019-02-12T21:47:50.830Z,4.10
2019-02-12T21:50:19.286Z,4.10
2019-02-12T21:52:47.762Z,4.10
2019-02-12T21:55:18.602Z,4.10
2019-02-12T21:57:47.142Z,4.13
2019-02-12T22:00:22.429Z,4.19
2019-02-12T22:02:51.009Z,4.20
2019-02-12T22:05:19.518Z,4.22
2019-02-12T22:07:48.000Z,4.22
2019-02-12T22:10:24.982Z,4.24
2019-02-12T22:12:53.602Z,4.28
2019-02-12T22:15:22.088Z,4.29
2019-02-12T22:17:50.772Z,4.31
2019-02-12T22:20:23.620Z,4.34
2019-02-12T22:22:52.199Z,4.36
2019-02-12T22:25:21.391Z,4.40
2019-02-12T22:27:49.827Z,4.43
2019-02-12T22:30:27.503Z,4.48
2019-02-12T22:32:57.286Z,4.49
2019-02-12T22:35:25.824Z,4.53
2019-02-12T22:37:54.348Z,4.57
2019-02-12T22:40:22.808Z,4.58
2019-02-12T22:42:51.328Z,4.57
2019-02-12T22:45:24.076Z,4.59
2019-02-12T22:47:52.994Z,4.61
2019-02-12T22:50:21.407Z,4.60
2019-02-12T22:52:49.861Z,4.61
2019-02-12T22:55:18.356Z,4.58
2019-02-12T22:57:49.300Z,4.53
2019-02-12T23:00:33.535Z,4.50
2019-02-12T23:03:02.121Z,4.46
2019-02-12T23:05:30.570Z,4.46
2019-02-12T23:07:59.095Z,4.49
2019-02-12T23:10:27.527Z,4.46
2019-02-12T23:12:56.361Z,4.43
2019-02-12T23:15:24.855Z,4.49
2019-02-12T23:17:53.283Z,4.48
2019-02-12T23:20:21.720Z,4.49
2019-02-12T23:22:53.705Z,4.51
2019-02-12T23:25:22.104Z,4.55
2019-02-12T23:27:57.255Z,4.59
2019-02-12T23:30:20.813Z,4.61
2019-02-12T23:32:49.246Z,4.62
2019-02-12T23:35:17.682Z,4.63
2019-02-12T23:37:46.266Z,4.63
2019-02-12T23:40:14.717Z,4.60
2019-02-12T23:42:43.207Z,4.60
2019-02-12T23:45:11.707Z,4.58
2019-02-12T23:47:40.154Z,4.54
2019-02-12T23:50:10.846Z,4.51
2019-02-12T23:52:39.342Z,4.53
2019-02-12T23:55:08.479Z,4.50
2019-02-12T23:57:36.892Z,4.54
